createdAt,value
2023-03-29T00:02:02.885Z,63.74
2023-03-29T00:07:52.400Z,63.45
2023-03-29T00:13:26.713Z,63.67
2023-03-29T00:19:21.752Z,64.14
2023-03-29T00:24:53.195Z,64.94
2023-03-29T00:30:51.353Z,65.40
2023-03-29T00:36:25.536Z,65.19
2023-03-29T00:42:35.104Z,65.23
2023-03-29T00:48:05.352Z,65.47
2023-03-29T00:54:02.815Z,65.46
2023-03-29T00:59:54.895Z,65.75
2023-03-29T01:05:36.600Z,66.42
2023-03-29T01:11:22.760Z,66.60
2023-03-29T01:18:05.686Z,66.55
2023-03-29T01:25:04.824Z,66.74
2023-03-29T01:31:22.829Z,66.77
2023-03-29T01:38:32.111Z,66.77
2023-03-29T01:44:55.023Z,67.11
2023-03-29T01:50:37.247Z,67.90
2023-03-29T01:57:16.718Z,68.11
2023-03-29T02:03:25.647Z,68.08
2023-03-29T02:09:15.841Z,67.92
2023-03-29T02:14:34.637Z,67.89
2023-03-29T02:20:31.032Z,68.51
2023-03-29T02:26:08.339Z,68.95
2023-03-29T02:32:07.635Z,69.18
2023-03-29T02:37:21.714Z,69.16
2023-03-29T02:42:58.661Z,69.36
2023-03-29T02:48:16.703Z,69.49
2023-03-29T02:54:28.939Z,69.65
2023-03-29T02:59:51.492Z,69.67
2023-03-29T03:05:16.449Z,69.41
2023-03-29T03:11:21.634Z,69.61
2023-03-29T03:17:48.164Z,69.13
2023-03-29T03:23:54.659Z,69.60
2023-03-29T03:29:35.389Z,69.99
2023-03-29T03:35:16.487Z,70.14
2023-03-29T03:40:26.594Z,69.64
2023-03-29T03:45:44.300Z,69.94
2023-03-29T03:52:03.673Z,70.25
2023-03-29T03:57:24.730Z,70.54
2023-03-29T04:03:30.664Z,70.37
2023-03-29T04:09:12.363Z,70.22
2023-03-29T04:14:20.977Z,70.40
2023-03-29T04:20:41.926Z,70.87
2023-03-29T04:26:24.580Z,70.96
2023-03-29T04:32:31.984Z,71.27
2023-03-29T04:37:41.486Z,71.74
2023-03-29T04:44:24.234Z,72.26
2023-03-29T04:50:08.294Z,72.17
2023-03-29T04:55:55.171Z,72.34
2023-03-29T05:01:54.098Z,72.79
2023-03-29T05:07:01.129Z,72.69
2023-03-29T05:13:03.839Z,73.14
2023-03-29T05:20:26.795Z,73.25
2023-03-29T05:26:54.688Z,71.94
2023-03-29T05:33:22.332Z,70.56
2023-03-29T05:40:11.576Z,68.86
2023-03-29T05:46:56.307Z,66.51
2023-03-29T05:53:21.784Z,64.23
2023-03-29T05:59:43.549Z,63.90
2023-03-29T06:06:05.303Z,61.74
2023-03-29T06:11:58.355Z,60.29
2023-03-29T06:17:34.729Z,59.68
2023-03-29T06:23:14.053Z,58.80
2023-03-29T06:28:22.200Z,55.41
2023-03-29T06:33:37.189Z,52.32
2023-03-29T06:39:04.900Z,50.17
2023-03-29T06:44:36.985Z,48.98
2023-03-29T06:49:57.357Z,48.35
2023-03-29T06:55:25.446Z,46.75
2023-03-29T07:00:58.748Z,44.18
2023-03-29T07:06:21.820Z,45.17
2023-03-29T07:11:54.133Z,42.74
2023-03-29T07:17:35.366Z,43.36
2023-03-29T07:22:47.636Z,42.78
2023-03-29T07:28:11.377Z,40.16
2023-03-29T07:33:13.939Z,38.89
2023-03-29T07:38:29.811Z,39.20
2023-03-29T07:43:42.582Z,40.31
2023-03-29T07:49:08.619Z,40.31
2023-03-29T07:54:10.922Z,37.88
2023-03-29T07:59:42.376Z,37.39
2023-03-29T08:04:58.304Z,37.62
2023-03-29T08:10:22.831Z,38.05
2023-03-29T08:15:27.970Z,38.26
2023-03-29T08:20:34.550Z,37.68
2023-03-29T08:25:41.240Z,39.50
2023-03-29T08:30:45.088Z,38.80
2023-03-29T08:35:52.808Z,37.97
2023-03-29T08:41:52.520Z,38.61
2023-03-29T08:47:18.641Z,38.93
2023-03-29T08:52:33.147Z,38.34
2023-03-29T08:57:52.067Z,37.25
2023-03-29T09:03:32.831Z,37.95
2023-03-29T09:08:44.880Z,37.11
2023-03-29T09:14:36.028Z,36.16
2023-03-29T09:20:10.608Z,33.99
2023-03-29T09:25:28.578Z,35.12
2023-03-29T09:30:36.015Z,36.37
2023-03-29T09:35:56.392Z,34.11
2023-03-29T09:41:14.311Z,32.39
2023-03-29T09:46:33.815Z,34.08
2023-03-29T09:51:40.376Z,34.89
2023-03-29T09:56:47.030Z,33.15
2023-03-29T10:02:09.042Z,30.03
2023-03-29T10:07:20.201Z,30.74
2023-03-29T10:12:27.856Z,30.94
2023-03-29T10:17:45.500Z,30.82
2023-03-29T10:22:56.385Z,31.44
2023-03-29T10:29:10.869Z,30.31
2023-03-29T10:35:32.154Z,31.96
2023-03-29T10:41:04.359Z,30.30
2023-03-29T10:47:11.945Z,31.04
2023-03-29T10:52:33.545Z,31.66
2023-03-29T10:58:06.374Z,30.87
2023-03-29T11:03:53.594Z,31.79
2023-03-29T11:09:12.180Z,31.14
2023-03-29T11:14:35.554Z,31.36
2023-03-29T11:19:43.398Z,31.50
2023-03-29T11:25:11.768Z,31.81
2023-03-29T11:30:27.626Z,31.17
2023-03-29T11:35:53.683Z,32.09
2023-03-29T11:41:02.229Z,31.87
2023-03-29T11:46:49.059Z,32.32
2023-03-29T11:52:03.777Z,30.64
2023-03-29T11:57:33.263Z,31.26
2023-03-29T12:03:13.584Z,32.16
2023-03-29T12:09:18.920Z,31.13
2023-03-29T12:15:46.540Z,32.69
2023-03-29T12:22:08.062Z,33.31
2023-03-29T12:28:14.728Z,31.58
2023-03-29T12:34:17.590Z,31.85
2023-03-29T12:39:38.190Z,32.09
2023-03-29T12:45:03.319Z,32.92
2023-03-29T12:50:36.483Z,33.99
2023-03-29T12:55:52.746Z,33.58
2023-03-29T13:01:07.392Z,34.01
2023-03-29T13:06:11.626Z,33.74
2023-03-29T13:11:36.915Z,33.83
2023-03-29T13:16:41.152Z,34.47
2023-03-29T13:21:58.611Z,33.38
2023-03-29T13:27:24.711Z,33.54
2023-03-29T13:32:36.162Z,33.79
2023-03-29T13:37:56.315Z,32.87
2023-03-29T13:43:07.893Z,32.47
2023-03-29T13:48:26.821Z,33.48
2023-03-29T13:53:41.258Z,32.35
2023-03-29T13:59:00.181Z,32.40
2023-03-29T14:04:11.284Z,31.85
2023-03-29T14:09:26.080Z,30.75
2023-03-29T14:14:31.683Z,29.90
2023-03-29T14:19:39.177Z,29.78
2023-03-29T14:24:48.757Z,29.39
2023-03-29T14:29:51.836Z,30.53
2023-03-29T14:34:53.792Z,30.26
2023-03-29T14:40:21.251Z,29.06
2023-03-29T14:45:23.432Z,28.13
2023-03-29T14:50:32.337Z,28.13
2023-03-29T14:55:35.974Z,26.33
2023-03-29T15:01:46.025Z,27.11
2023-03-29T15:08:07.569Z,27.59
2023-03-29T15:13:30.317Z,28.53
2023-03-29T15:18:39.523Z,29.24
2023-03-29T15:24:00.835Z,30.14
2023-03-29T15:29:12.816Z,31.28
2023-03-29T15:34:27.532Z,31.59
2023-03-29T15:39:33.747Z,32.00
2023-03-29T15:44:38.237Z,32.84
2023-03-29T15:49:43.889Z,33.48
2023-03-29T15:54:46.201Z,34.36
2023-03-29T15:59:48.113Z,35.47
2023-03-29T16:04:52.955Z,36.37
2023-03-29T16:09:55.261Z,37.34
2023-03-29T16:14:57.481Z,37.86
2023-03-29T16:19:59.324Z,37.55
2023-03-29T16:25:04.654Z,37.72
2023-03-29T16:30:10.823Z,37.99
2023-03-29T16:35:31.474Z,38.17
2023-03-29T16:40:42.824Z,38.91
2023-03-29T16:46:00.799Z,39.37
2023-03-29T16:51:10.713Z,39.87
2023-03-29T16:56:15.180Z,40.14
2023-03-29T17:01:25.013Z,40.11
2023-03-29T17:07:10.979Z,40.26
2023-03-29T17:13:32.216Z,40.13
2023-03-29T17:19:14.739Z,40.25
2023-03-29T17:24:16.522Z,40.37
2023-03-29T17:29:18.411Z,40.79
2023-03-29T17:34:20.487Z,41.02
2023-03-29T17:39:24.593Z,41.11
2023-03-29T17:44:26.619Z,41.43
2023-03-29T17:49:28.434Z,41.81
2023-03-29T17:54:30.211Z,42.11
2023-03-29T17:59:31.982Z,42.32
2023-03-29T18:04:35.742Z,42.29
2023-03-29T18:09:37.506Z,42.60
2023-03-29T18:14:44.202Z,42.99
2023-03-29T18:19:58.665Z,43.18
2023-03-29T18:25:05.088Z,43.40
2023-03-29T18:30:09.824Z,43.75
2023-03-29T18:35:11.645Z,44.00
2023-03-29T18:40:15.110Z,44.58
2023-03-29T18:46:16.423Z,45.01
2023-03-29T18:51:59.342Z,45.43
2023-03-29T18:57:01.449Z,46.11
2023-03-29T19:02:03.594Z,46.63
2023-03-29T19:07:05.143Z,47.02
2023-03-29T19:12:09.628Z,47.39
2023-03-29T19:17:15.663Z,47.60
2023-03-29T19:22:17.580Z,48.00
2023-03-29T19:28:19.050Z,48.37
2023-03-29T19:34:40.875Z,48.53
2023-03-29T19:41:02.176Z,48.54
2023-03-29T19:47:25.752Z,48.74
2023-03-29T19:52:46.266Z,48.82
2023-03-29T19:58:21.861Z,48.61
2023-03-29T20:03:48.497Z,48.75
2023-03-29T20:09:08.485Z,48.97
2023-03-29T20:17:21.223Z,49.54
2023-03-29T20:23:27.846Z,50.14
2023-03-29T20:30:01.301Z,50.87
2023-03-29T20:35:23.084Z,51.35
2023-03-29T20:40:36.426Z,51.70
2023-03-29T20:46:43.885Z,51.88
2023-03-29T20:53:14.596Z,52.23
2023-03-29T20:58:41.519Z,52.35
2023-03-29T21:04:43.771Z,52.58
2023-03-29T21:10:09.728Z,52.87
2023-03-29T21:15:20.200Z,53.12
2023-03-29T21:21:23.341Z,53.34
2023-03-29T21:27:49.672Z,53.56
2023-03-29T21:33:41.196Z,53.88
2023-03-29T21:39:52.816Z,54.19
2023-03-29T21:46:17.394Z,54.34
2023-03-29T21:51:46.331Z,54.71
2023-03-29T21:57:15.434Z,54.82
2023-03-29T22:03:20.463Z,55.23
2023-03-29T22:09:38.196Z,55.54
2023-03-29T22:15:12.452Z,55.87
2023-03-29T22:21:17.554Z,56.33
2023-03-29T22:27:22.158Z,56.76
2023-03-29T22:33:30.285Z,57.24
2023-03-29T22:40:02.982Z,57.59
2023-03-29T22:46:12.078Z,57.82
2023-03-29T22:52:36.749Z,58.14
2023-03-29T22:58:43.997Z,58.50
2023-03-29T23:04:42.797Z,58.55
2023-03-29T23:10:18.596Z,58.63
2023-03-29T23:16:21.925Z,59.06
2023-03-29T23:21:27.469Z,59.25
2023-03-29T23:27:29.166Z,59.46
2023-03-29T23:33:38.033Z,59.78
2023-03-29T23:38:58.994Z,60.17
2023-03-29T23:44:28.118Z,60.29
2023-03-29T23:50:06.812Z,60.57
2023-03-29T23:56:21.191Z,60.70
